Time;durP1;ratioP1;P1;durP2;ratioP2;P2;SDS_P1;SDS_P2;PMS_P1;PMS_P2;Temp;Humidity;BMP_temperature;BMP_pressure;BME280_temperature;BME280_humidity;BME280_pressure;Samples;Min_cycle;Max_cycle;Signal;HPM_P1;HPM_P2
2020/12/15 00:01:52;;;;;;;6.93;6.30;;;10.80;81.90;;;;;;5050348;28;20994;-49
2020/12/15 00:04:19;;;;;;;7.97;7.17;;;10.80;81.70;;;;;;5049950;28;20818;-54
2020/12/15 00:06:46;;;;;;;7.70;6.70;;;10.80;81.70;;;;;;5050824;28;20653;-50
2020/12/15 00:09:13;;;;;;;7.80;7.00;;;10.80;81.70;;;;;;5050239;28;20675;-50
2020/12/15 00:11:40;;;;;;;7.47;6.77;;;10.80;81.70;;;;;;5045810;28;20662;-50
2020/12/15 00:14:07;;;;;;;7.20;6.50;;;10.80;81.70;;;;;;5049771;28;20744;-52
2020/12/15 00:16:34;;;;;;;10.20;7.90;;;10.80;81.70;;;;;;5049591;28;20657;-54
2020/12/15 00:19:01;;;;;;;7.33;6.50;;;10.80;81.60;;;;;;5050164;28;20792;-52
2020/12/15 00:21:28;;;;;;;6.80;6.10;;;10.80;81.80;;;;;;5050205;28;20665;-50
2020/12/15 00:23:56;;;;;;;7.17;6.57;;;10.70;81.80;;;;;;5050027;28;20677;-51
2020/12/15 00:26:24;;;;;;;6.73;6.13;;;10.70;82.10;;;;;;5050440;28;20640;-52
2020/12/15 00:28:51;;;;;;;8.47;7.60;;;10.70;82.30;;;;;;5049149;28;20704;-53
2020/12/15 00:31:18;;;;;;;7.73;6.93;;;10.70;82.10;;;;;;5049608;28;20650;-53
2020/12/15 00:33:45;;;;;;;7.43;6.70;;;10.70;82.00;;;;;;5050736;28;21110;-52
2020/12/15 00:36:17;;;;;;;7.10;6.00;;;10.80;82.20;;;;;;5049960;28;20615;-52
2020/12/15 00:38:44;;;;;;;7.77;6.83;;;10.70;82.10;;;;;;5049623;28;20701;-50
2020/12/15 00:41:11;;;;;;;6.90;6.20;;;10.70;82.00;;;;;;5049535;28;20668;-51
2020/12/15 00:43:38;;;;;;;8.67;7.37;;;10.70;82.10;;;;;;5049774;28;20978;-53
2020/12/15 00:46:05;;;;;;;8.77;6.80;;;10.80;82.80;;;;;;5047971;28;21209;-52
2020/12/15 00:48:32;;;;;;;7.80;6.60;;;10.80;82.10;;;;;;5049130;28;20697;-48
2020/12/15 00:50:59;;;;;;;7.90;6.40;;;10.80;81.80;;;;;;5049593;28;20641;-48
2020/12/15 00:53:26;;;;;;;6.20;5.70;;;10.80;81.50;;;;;;5049510;28;21009;-51
2020/12/15 00:55:52;;;;;;;9.73;8.33;;;10.80;81.80;;;;;;5049539;28;20617;-54
2020/12/15 00:58:20;;;;;;;10.93;7.53;;;10.80;82.10;;;;;;5048814;28;21314;-52
2020/12/15 01:00:47;;;;;;;7.80;6.27;;;10.80;82.10;;;;;;5049454;28;20633;-50
2020/12/15 01:03:13;;;;;;;10.03;7.83;;;10.80;81.90;;;;;;5049858;28;20661;-52
2020/12/15 01:05:40;;;;;;;7.27;6.57;;;10.90;81.80;;;;;;5050444;28;20696;-51
2020/12/15 01:08:07;;;;;;;6.93;6.27;;;10.90;81.90;;;;;;5050107;28;20654;-49
2020/12/15 01:10:34;;;;;;;7.87;6.10;;;10.90;81.90;;;;;;5048339;28;21014;-50
2020/12/15 01:13:01;;;;;;;11.90;8.50;;;10.80;81.80;;;;;;5052666;28;21204;-53
2020/12/15 01:15:29;;;;;;;9.63;8.67;;;10.80;82.10;;;;;;5053733;28;20664;-53
2020/12/15 01:17:55;;;;;;;7.17;6.57;;;10.80;83.00;;;;;;5053101;28;20697;-54
2020/12/15 01:20:22;;;;;;;8.57;7.77;;;10.80;82.70;;;;;;5053511;28;21197;-50
2020/12/15 01:22:49;;;;;;;9.10;7.37;;;10.80;82.80;;;;;;5053473;28;20653;-49
2020/12/15 01:25:16;;;;;;;8.20;7.00;;;10.90;82.80;;;;;;5052623;28;20677;-53
2020/12/15 01:27:43;;;;;;;8.00;7.20;;;10.90;82.60;;;;;;5053203;28;20625;-53
2020/12/15 01:30:10;;;;;;;8.60;7.83;;;11.00;82.50;;;;;;5053863;28;20657;-49
2020/12/15 01:32:37;;;;;;;8.80;7.90;;;11.00;82.50;;;;;;5049643;28;20650;-51
2020/12/15 01:35:04;;;;;;;7.90;6.80;;;10.90;82.60;;;;;;5033370;28;20654;-49
2020/12/15 01:37:31;;;;;;;8.77;7.60;;;11.00;82.80;;;;;;5033192;28;20639;-50
2020/12/15 01:39:57;;;;;;;8.57;7.53;;;11.00;82.90;;;;;;5035448;28;20678;-50
2020/12/15 01:42:24;;;;;;;8.87;7.47;;;10.90;83.20;;;;;;5048685;28;20687;-49
2020/12/15 01:44:51;;;;;;;8.20;7.50;;;10.90;83.30;;;;;;5053257;28;20652;-49
2020/12/15 01:47:18;;;;;;;8.47;7.67;;;10.90;84.00;;;;;;5050087;28;20659;-49
2020/12/15 01:49:45;;;;;;;11.30;8.53;;;10.80;84.50;;;;;;5038712;28;20686;-52
2020/12/15 01:52:12;;;;;;;9.03;8.10;;;10.80;85.10;;;;;;5053096;28;20653;-49
2020/12/15 01:54:39;;;;;;;10.47;9.07;;;10.80;86.20;;;;;;5052465;28;20668;-49
2020/12/15 01:57:06;;;;;;;11.73;8.97;;;10.80;86.40;;;;;;5053003;28;20691;-49
2020/12/15 01:59:33;;;;;;;8.50;7.70;;;10.80;86.30;;;;;;5052633;28;20705;-49
2020/12/15 02:01:59;;;;;;;12.20;8.57;;;10.80;86.10;;;;;;5052425;28;20661;-50
2020/12/15 02:04:26;;;;;;;7.90;6.83;;;10.80;85.90;;;;;;5052531;28;20650;-49
2020/12/15 02:06:54;;;;;;;7.83;7.23;;;10.80;87.10;;;;;;5052712;28;20630;-53
2020/12/15 02:09:21;;;;;;;8.40;7.60;;;10.80;86.60;;;;;;5052381;28;21245;-49
2020/12/15 02:11:48;;;;;;;8.90;8.00;;;10.80;87.40;;;;;;5052153;28;20630;-47
2020/12/15 02:14:14;;;;;;;9.33;8.50;;;10.80;88.00;;;;;;5053049;28;21201;-48
2020/12/15 02:16:41;;;;;;;9.10;8.10;;;10.90;88.30;;;;;;5051805;28;21257;-51
2020/12/15 02:19:14;;;;;;;10.27;8.40;;;10.90;88.60;;;;;;5047353;28;20732;-50
2020/12/15 02:21:49;;;;;;;8.50;7.70;;;10.90;88.80;;;;;;5051725;28;21157;-48
2020/12/15 02:24:16;;;;;;;8.87;7.53;;;10.90;88.00;;;;;;5052379;28;20668;-48
2020/12/15 02:26:43;;;;;;;9.53;8.53;;;10.90;87.60;;;;;;5052267;28;20687;-48
2020/12/15 02:29:09;;;;;;;7.50;6.90;;;10.90;87.80;;;;;;5051560;28;20684;-51
2020/12/15 02:31:36;;;;;;;9.53;7.20;;;10.90;88.20;;;;;;5051866;28;20709;-50
2020/12/15 02:34:03;;;;;;;7.60;6.27;;;10.90;88.30;;;;;;5051834;28;20660;-52
2020/12/15 02:36:30;;;;;;;8.40;7.60;;;10.90;88.40;;;;;;5051987;28;20668;-52
2020/12/15 02:39:06;;;;;;;8.17;7.33;;;10.90;88.70;;;;;;5051096;28;20697;-52
2020/12/15 02:41:33;;;;;;;7.40;6.70;;;10.90;88.80;;;;;;5051826;28;20657;-52
2020/12/15 02:44:00;;;;;;;7.00;6.30;;;10.90;88.80;;;;;;5052068;28;20661;-52
2020/12/15 02:46:26;;;;;;;9.57;6.47;;;10.90;88.60;;;;;;5051515;28;20657;-52
2020/12/15 02:48:54;;;;;;;7.50;6.83;;;11.00;88.20;;;;;;5051821;28;20686;-52
2020/12/15 02:51:21;;;;;;;9.23;7.23;;;11.00;87.70;;;;;;5051280;28;20653;-52
2020/12/15 02:53:47;;;;;;;7.70;6.30;;;11.00;87.30;;;;;;5051828;28;21197;-53
2020/12/15 02:56:19;;;;;;;9.00;6.37;;;11.00;87.60;;;;;;5051665;28;20658;-51
2020/12/15 02:58:46;;;;;;;6.83;6.23;;;10.90;87.60;;;;;;5052457;28;20673;-52
2020/12/15 03:01:13;;;;;;;6.83;6.23;;;10.90;87.90;;;;;;5051935;28;20638;-52
2020/12/15 03:03:40;;;;;;;6.97;6.30;;;10.90;88.20;;;;;;5049905;28;20704;-52
2020/12/15 03:06:07;;;;;;;7.23;6.23;;;10.90;88.10;;;;;;5051748;28;20661;-51
2020/12/15 03:08:33;;;;;;;10.40;7.60;;;10.90;87.80;;;;;;5051938;28;20642;-51
2020/12/15 03:11:00;;;;;;;6.73;6.13;;;10.90;87.80;;;;;;5051498;28;21149;-52
2020/12/15 03:13:28;;;;;;;7.27;6.57;;;10.90;87.60;;;;;;5051461;28;20661;-49
2020/12/15 03:15:55;;;;;;;7.33;6.70;;;10.90;87.80;;;;;;5051413;28;20661;-51
2020/12/15 03:18:22;;;;;;;9.57;7.10;;;10.90;87.80;;;;;;5050353;28;20696;-52
2020/12/15 03:20:49;;;;;;;7.70;6.87;;;10.90;88.30;;;;;;5049796;28;20657;-52
2020/12/15 03:23:16;;;;;;;8.00;7.20;;;10.90;87.70;;;;;;5050583;28;20671;-50
2020/12/15 03:25:43;;;;;;;7.23;6.63;;;10.90;87.80;;;;;;5051110;28;20661;-51
2020/12/15 03:28:11;;;;;;;7.50;6.90;;;11.00;87.70;;;;;;5051092;28;20721;-50
2020/12/15 03:30:38;;;;;;;11.63;8.70;;;11.00;87.90;;;;;;5050637;28;20650;-51
2020/12/15 03:33:05;;;;;;;7.33;6.63;;;11.10;88.40;;;;;;5036754;28;20685;-52
2020/12/15 03:35:32;;;;;;;10.40;7.80;;;11.00;88.80;;;;;;5038367;28;20658;-52
2020/12/15 03:37:59;;;;;;;7.43;6.77;;;11.00;89.00;;;;;;5042272;28;20638;-53
2020/12/15 03:40:26;;;;;;;8.20;7.30;;;10.90;89.00;;;;;;5050809;28;20772;-54
2020/12/15 03:42:53;;;;;;;7.43;6.83;;;10.90;89.20;;;;;;5046088;28;20681;-54
2020/12/15 03:45:20;;;;;;;7.30;6.70;;;11.00;89.10;;;;;;5050451;28;20777;-52
2020/12/15 03:47:47;;;;;;;8.37;7.57;;;11.00;89.00;;;;;;5032062;28;20670;-52
2020/12/15 03:50:14;;;;;;;6.70;6.10;;;11.00;89.10;;;;;;5054266;22;20721;-51
2020/12/15 03:52:41;;;;;;;9.20;8.17;;;11.00;89.30;;;;;;5051776;28;21355;-51
2020/12/15 03:55:07;;;;;;;7.90;7.10;;;10.90;89.40;;;;;;5051978;28;21026;-51
2020/12/15 03:57:34;;;;;;;10.63;8.37;;;11.00;89.20;;;;;;5051654;28;21251;-51
2020/12/15 04:00:01;;;;;;;8.50;7.70;;;10.90;89.10;;;;;;5051510;28;20690;-51
2020/12/15 04:02:28;;;;;;;8.57;7.77;;;11.00;89.20;;;;;;5051513;28;20661;-52
2020/12/15 04:04:55;;;;;;;11.10;9.50;;;11.00;89.30;;;;;;5051198;28;20614;-52
2020/12/15 04:07:22;;;;;;;8.40;7.50;;;10.90;89.50;;;;;;5051417;28;21046;-52
2020/12/15 04:09:49;;;;;;;8.80;7.90;;;11.00;89.70;;;;;;5050869;28;21065;-52
2020/12/15 04:12:16;;;;;;;8.50;7.70;;;11.00;89.80;;;;;;5051604;28;20677;-52
2020/12/15 04:14:42;;;;;;;8.47;7.67;;;11.00;90.00;;;;;;5051493;28;20634;-52
2020/12/15 04:17:09;;;;;;;10.80;9.43;;;11.00;90.00;;;;;;5042993;28;20666;-52
2020/12/15 04:19:36;;;;;;;11.13;10.03;;;11.00;90.10;;;;;;5037914;28;21273;-52
2020/12/15 04:22:04;;;;;;;11.07;10.00;;;11.00;90.00;;;;;;5051647;28;20657;-51
2020/12/15 04:24:30;;;;;;;8.87;8.03;;;11.00;90.10;;;;;;5051817;28;20637;-51
2020/12/15 04:26:57;;;;;;;8.67;7.87;;;11.10;90.30;;;;;;5051539;28;20665;-51
2020/12/15 04:29:24;;;;;;;10.27;9.37;;;11.00;90.20;;;;;;5036859;28;20828;-51
2020/12/15 04:31:51;;;;;;;10.77;9.57;;;11.00;90.30;;;;;;5051065;28;20657;-52
2020/12/15 04:34:18;;;;;;;9.77;8.87;;;11.00;90.30;;;;;;5041450;28;20668;-52
2020/12/15 04:36:44;;;;;;;8.80;8.10;;;11.00;90.30;;;;;;5031395;28;20649;-52
2020/12/15 04:39:12;;;;;;;8.80;8.03;;;11.10;90.40;;;;;;5031315;28;20698;-52
2020/12/15 04:41:39;;;;;;;9.47;8.60;;;11.00;90.30;;;;;;5031301;28;20708;-52
2020/12/15 04:44:06;;;;;;;10.67;9.67;;;11.00;90.30;;;;;;5030883;28;20630;-52
2020/12/15 04:46:36;;;;;;;10.37;9.13;;;11.00;90.40;;;;;;5031532;28;20691;-54
2020/12/15 04:49:05;;;;;;;9.30;8.40;;;11.00;90.40;;;;;;5049265;28;21042;-52
2020/12/15 04:51:35;;;;;;;8.90;8.00;;;11.00;90.40;;;;;;5051503;28;20720;-52
2020/12/15 04:54:03;;;;;;;9.40;8.50;;;11.00;90.50;;;;;;5051431;28;20730;-53
2020/12/15 04:56:31;;;;;;;8.50;7.80;;;11.00;90.60;;;;;;5051431;28;20650;-53
2020/12/15 04:58:59;;;;;;;10.80;9.00;;;11.00;90.70;;;;;;5051369;28;20682;-52
2020/12/15 05:01:26;;;;;;;8.83;8.07;;;10.90;90.70;;;;;;5050751;28;20623;-53
2020/12/15 05:03:53;;;;;;;10.10;8.97;;;10.90;90.80;;;;;;5050872;28;20654;-54
2020/12/15 05:06:27;;;;;;;8.40;7.67;;;10.90;90.90;;;;;;5050950;28;20662;-53
2020/12/15 05:08:54;;;;;;;10.93;8.60;;;11.00;91.00;;;;;;5051161;28;21166;-51
2020/12/15 05:11:22;;;;;;;9.70;8.70;;;11.00;91.00;;;;;;5050662;28;20650;-54
2020/12/15 05:13:50;;;;;;;13.23;8.43;;;11.00;90.90;;;;;;5051037;28;20656;-54
2020/12/15 05:16:17;;;;;;;11.53;9.53;;;11.00;90.80;;;;;;5050956;28;20654;-51
2020/12/15 05:18:43;;;;;;;10.10;8.80;;;11.00;90.90;;;;;;5050148;28;20709;-51
2020/12/15 05:21:14;;;;;;;10.40;9.50;;;11.00;91.00;;;;;;5050660;28;21231;-52
2020/12/15 05:23:49;;;;;;;10.27;9.37;;;10.90;91.20;;;;;;5050493;28;20672;-51
2020/12/15 05:26:22;;;;;;;10.03;9.10;;;10.90;91.40;;;;;;5050721;28;20658;-51
2020/12/15 05:29:01;;;;;;;11.33;10.13;;;11.00;91.30;;;;;;5050692;28;20654;-53
2020/12/15 05:31:28;;;;;;;9.93;8.93;;;10.90;91.40;;;;;;5047997;28;20630;-53
2020/12/15 05:33:54;;;;;;;10.30;9.30;;;10.90;91.60;;;;;;5050497;28;20622;-53
2020/12/15 05:36:21;;;;;;;9.50;8.50;;;10.90;91.80;;;;;;5050454;28;20626;-52
2020/12/15 05:39:01;;;;;;;10.67;9.67;;;10.90;91.80;;;;;;5050466;28;20658;-54
2020/12/15 05:41:28;;;;;;;10.20;9.20;;;10.90;91.90;;;;;;5049611;28;20668;-52
2020/12/15 05:43:57;;;;;;;11.03;9.93;;;10.90;92.10;;;;;;5041085;28;20689;-52
2020/12/15 05:46:24;;;;;;;10.57;9.43;;;10.90;92.10;;;;;;5050354;28;20654;-51
2020/12/15 05:48:51;;;;;;;9.40;8.50;;;10.80;92.10;;;;;;5050439;28;21213;-52
2020/12/15 05:51:17;;;;;;;11.37;10.07;;;10.90;92.10;;;;;;5050463;28;20664;-52
2020/12/15 05:53:44;;;;;;;11.20;8.87;;;10.90;92.10;;;;;;5049992;28;21010;-52
2020/12/15 05:56:20;;;;;;;11.57;9.27;;;10.90;92.20;;;;;;5051775;28;20661;-51
2020/12/15 05:58:53;;;;;;;9.47;8.57;;;10.90;92.30;;;;;;5053403;28;20695;-54
2020/12/15 06:01:21;;;;;;;9.53;8.67;;;10.90;92.40;;;;;;5054242;28;20622;-54
2020/12/15 06:03:55;;;;;;;12.30;9.27;;;10.90;92.40;;;;;;5054352;28;20629;-54
2020/12/15 06:06:23;;;;;;;9.87;8.83;;;10.90;92.50;;;;;;5054187;28;21224;-53
2020/12/15 06:08:50;;;;;;;11.07;10.07;;;11.00;92.50;;;;;;5053565;28;21475;-51
2020/12/15 06:11:18;;;;;;;9.57;8.67;;;11.00;92.60;;;;;;5052885;28;20656;-52
2020/12/15 06:13:45;;;;;;;9.87;8.97;;;11.00;92.50;;;;;;5053158;28;20697;-52
2020/12/15 06:16:12;;;;;;;9.97;8.97;;;10.90;92.60;;;;;;5054332;28;20633;-53
2020/12/15 06:18:41;;;;;;;10.50;9.50;;;11.00;92.80;;;;;;5053478;28;20629;-53
2020/12/15 06:21:09;;;;;;;10.40;9.50;;;11.00;92.80;;;;;;5053789;28;20688;-53
2020/12/15 06:23:36;;;;;;;10.20;9.17;;;11.00;92.80;;;;;;5052994;28;20691;-54
2020/12/15 06:26:03;;;;;;;9.40;8.07;;;11.00;92.90;;;;;;5068281;28;20741;-52
2020/12/15 06:28:32;;;;;;;9.00;8.20;;;11.00;92.70;;;;;;5051928;28;21038;-52
2020/12/15 06:31:01;;;;;;;10.50;9.60;;;11.00;92.70;;;;;;5053091;28;20692;-54
2020/12/15 06:33:34;;;;;;;10.90;9.90;;;11.00;92.60;;;;;;5042994;28;20635;-51
2020/12/15 06:36:06;;;;;;;10.10;9.20;;;11.00;92.80;;;;;;5032736;28;20784;-53
2020/12/15 06:38:37;;;;;;;12.43;10.27;;;11.00;92.90;;;;;;5031796;28;20982;-53
2020/12/15 06:41:04;;;;;;;10.57;9.57;;;11.00;93.10;;;;;;5040797;28;20666;-51
2020/12/15 06:43:31;;;;;;;10.43;9.33;;;11.00;93.20;;;;;;5052476;28;20656;-51
2020/12/15 06:46:05;;;;;;;10.83;9.80;;;11.00;93.20;;;;;;5053981;28;20622;-53
2020/12/15 06:48:31;;;;;;;12.23;9.83;;;11.00;93.10;;;;;;5052620;28;21268;-53
2020/12/15 06:50:58;;;;;;;10.70;9.10;;;11.00;93.20;;;;;;5052577;28;20674;-53
2020/12/15 06:53:26;;;;;;;9.40;8.50;;;11.00;93.20;;;;;;5052238;28;20666;-52
2020/12/15 06:56:03;;;;;;;9.87;8.37;;;11.00;93.30;;;;;;5053461;28;20626;-51
2020/12/15 06:58:30;;;;;;;9.77;8.87;;;11.00;93.30;;;;;;5052900;28;20660;-51
2020/12/15 07:00:58;;;;;;;11.53;10.17;;;11.00;93.30;;;;;;5052523;28;20666;-53
2020/12/15 07:03:34;;;;;;;9.67;8.77;;;11.10;93.30;;;;;;5051159;28;20656;-52
2020/12/15 07:06:08;;;;;;;9.67;8.23;;;11.00;93.20;;;;;;5052694;28;20637;-53
2020/12/15 07:08:36;;;;;;;8.90;8.20;;;11.10;93.10;;;;;;5052214;28;20680;-53
2020/12/15 07:11:03;;;;;;;8.63;7.83;;;11.10;93.20;;;;;;5052211;28;20670;-53
2020/12/15 07:13:29;;;;;;;10.30;8.90;;;11.10;93.20;;;;;;5052451;28;21252;-50
2020/12/15 07:15:56;;;;;;;9.10;8.30;;;11.10;93.20;;;;;;5052429;28;20625;-52
2020/12/15 07:18:23;;;;;;;10.70;9.77;;;11.10;93.10;;;;;;5052572;28;20652;-51
2020/12/15 07:20:50;;;;;;;11.23;8.30;;;11.10;93.20;;;;;;5052481;28;20701;-52
2020/12/15 07:23:17;;;;;;;10.73;8.77;;;11.10;93.20;;;;;;5052809;28;20683;-53
2020/12/15 07:25:45;;;;;;;8.53;7.83;;;11.10;93.40;;;;;;5050877;28;20664;-53
2020/12/15 07:28:12;;;;;;;10.70;8.50;;;11.10;93.60;;;;;;5052499;28;20665;-55
2020/12/15 07:30:39;;;;;;;9.50;7.50;;;11.00;93.60;;;;;;5052130;28;20680;-49
2020/12/15 07:33:06;;;;;;;9.70;8.80;;;11.10;93.70;;;;;;5052793;28;20662;-50
2020/12/15 07:35:34;;;;;;;8.77;7.83;;;11.10;93.70;;;;;;5052443;28;21214;-51
2020/12/15 07:38:02;;;;;;;11.37;8.53;;;11.10;93.70;;;;;;5051037;28;20630;-53
2020/12/15 07:40:30;;;;;;;10.80;9.20;;;11.10;93.70;;;;;;5051032;28;21253;-52
2020/12/15 07:42:59;;;;;;;10.10;9.07;;;11.20;93.70;;;;;;5048383;28;21220;-52
2020/12/15 07:45:27;;;;;;;10.13;8.27;;;11.20;93.70;;;;;;5032305;28;20633;-50
2020/12/15 07:47:55;;;;;;;9.97;8.97;;;11.20;93.70;;;;;;5047092;28;21259;-52
2020/12/15 07:50:26;;;;;;;10.17;9.27;;;11.20;93.70;;;;;;5032179;28;21296;-54
2020/12/15 07:52:54;;;;;;;10.40;8.80;;;11.30;93.70;;;;;;5037148;28;21247;-54
2020/12/15 07:55:22;;;;;;;9.97;8.97;;;11.20;93.50;;;;;;5050854;28;20698;-51
2020/12/15 07:57:49;;;;;;;9.33;8.23;;;11.20;93.50;;;;;;5052177;28;20730;-53
2020/12/15 08:00:18;;;;;;;9.93;7.57;;;11.30;93.40;;;;;;5050678;28;20704;-52
2020/12/15 08:02:45;;;;;;;10.07;8.43;;;11.30;93.30;;;;;;5050557;28;20638;-52
2020/12/15 08:05:14;;;;;;;10.43;9.43;;;11.30;93.30;;;;;;5050871;28;20621;-51
2020/12/15 08:07:46;;;;;;;13.03;8.27;;;11.30;93.20;;;;;;5051331;28;20679;-52
2020/12/15 08:10:14;;;;;;;9.63;8.73;;;11.30;93.20;;;;;;5051565;28;20693;-53
2020/12/15 08:12:41;;;;;;;8.87;7.60;;;11.30;93.20;;;;;;5051866;28;20669;-51
2020/12/15 08:15:09;;;;;;;10.57;9.43;;;11.30;93.30;;;;;;5050678;28;20626;-51
2020/12/15 08:17:38;;;;;;;9.73;8.33;;;11.30;93.40;;;;;;5050889;28;21181;-52
2020/12/15 08:20:06;;;;;;;10.50;8.80;;;11.30;93.40;;;;;;5051470;28;20678;-51
2020/12/15 08:22:37;;;;;;;10.30;9.30;;;11.30;93.40;;;;;;5051515;28;20637;-54
2020/12/15 08:25:04;;;;;;;11.17;9.00;;;11.30;93.50;;;;;;5051700;28;20640;-51
2020/12/15 08:27:35;;;;;;;9.53;8.70;;;11.30;93.80;;;;;;5051771;28;20641;-52
2020/12/15 08:30:12;;;;;;;9.67;8.70;;;11.40;93.50;;;;;;5049464;28;20689;-50
2020/12/15 08:32:44;;;;;;;10.53;8.77;;;11.40;93.40;;;;;;5051477;28;21162;-52
2020/12/15 08:35:11;;;;;;;9.83;8.93;;;11.40;93.40;;;;;;5050947;28;20707;-51
2020/12/15 08:37:38;;;;;;;9.63;8.63;;;11.40;93.40;;;;;;5050864;28;20648;-51
2020/12/15 08:40:07;;;;;;;13.10;9.03;;;11.30;93.40;;;;;;5051012;28;21195;-52
2020/12/15 08:42:39;;;;;;;10.10;9.10;;;11.30;93.50;;;;;;5050048;28;20618;-52
2020/12/15 08:45:13;;;;;;;13.00;9.93;;;11.30;93.50;;;;;;5050872;28;20752;-51
2020/12/15 08:47:45;;;;;;;9.27;8.43;;;11.40;93.50;;;;;;5050991;28;20657;-53
2020/12/15 08:50:13;;;;;;;11.10;9.10;;;11.40;93.40;;;;;;5051042;28;20761;-52
2020/12/15 08:52:40;;;;;;;10.37;9.37;;;11.40;93.50;;;;;;5050040;28;20615;-53
2020/12/15 08:55:08;;;;;;;11.73;9.50;;;11.40;93.50;;;;;;5050965;28;20622;-52
2020/12/15 08:57:34;;;;;;;13.07;10.47;;;11.40;93.70;;;;;;5050269;28;20676;-51
2020/12/15 09:00:12;;;;;;;13.90;10.57;;;11.50;93.80;;;;;;5050725;28;20725;-50
2020/12/15 09:02:38;;;;;;;11.67;8.97;;;11.40;94.00;;;;;;5050728;28;20630;-53
2020/12/15 09:05:08;;;;;;;11.90;10.70;;;11.50;93.70;;;;;;5050748;28;21001;-53
2020/12/15 09:07:35;;;;;;;10.03;8.73;;;11.50;93.80;;;;;;5051148;28;20671;-54
2020/12/15 09:10:23;;;;;;;15.00;9.90;;;11.50;93.70;;;;;;5050813;28;21147;-52
2020/12/15 09:12:53;;;;;;;11.70;10.00;;;11.50;93.70;;;;;;5053022;28;20992;-53
2020/12/15 09:15:20;;;;;;;14.67;13.17;;;11.50;93.70;;;;;;5051228;28;20594;-50
2020/12/15 09:17:47;;;;;;;9.73;8.87;;;11.60;93.80;;;;;;5050787;28;20665;-52
2020/12/15 09:20:23;;;;;;;10.50;8.87;;;11.60;93.70;;;;;;5050133;28;20716;-51
2020/12/15 09:22:50;;;;;;;10.87;9.50;;;11.60;93.60;;;;;;5050685;28;20625;-52
2020/12/15 09:25:17;;;;;;;13.20;10.53;;;11.60;93.50;;;;;;5049003;28;20652;-53
2020/12/15 09:27:45;;;;;;;12.27;10.53;;;11.60;93.50;;;;;;5049293;28;21212;-52
2020/12/15 09:30:13;;;;;;;15.90;12.00;;;11.60;93.70;;;;;;5051953;28;20661;-51
2020/12/15 09:32:41;;;;;;;12.53;10.70;;;11.50;93.50;;;;;;5053085;28;20969;-51
2020/12/15 09:35:09;;;;;;;16.03;12.07;;;11.40;93.50;;;;;;5054825;28;20642;-52
2020/12/15 09:37:38;;;;;;;16.23;14.50;;;11.30;93.50;;;;;;5054294;28;20629;-53
2020/12/15 09:40:06;;;;;;;15.87;14.57;;;11.20;93.20;;;;;;5052947;28;21019;-52
2020/12/15 09:42:33;;;;;;;15.53;13.53;;;11.10;92.90;;;;;;5054323;28;20622;-52
2020/12/15 09:45:00;;;;;;;17.80;15.90;;;11.10;93.00;;;;;;5040629;28;20634;-51
2020/12/15 09:47:26;;;;;;;15.30;13.90;;;10.90;93.00;;;;;;5033840;28;20655;-51
2020/12/15 09:49:53;;;;;;;17.90;15.40;;;10.90;93.10;;;;;;5052512;22;20713;-51
2020/12/15 09:52:20;;;;;;;17.37;15.63;;;10.90;93.20;;;;;;5050920;28;20699;-51
2020/12/15 09:54:48;;;;;;;20.93;14.20;;;10.90;93.20;;;;;;5033036;28;20932;-49
2020/12/15 09:57:15;;;;;;;17.80;14.70;;;11.00;93.20;;;;;;5032716;28;20730;-50
2020/12/15 09:59:41;;;;;;;17.60;15.80;;;10.90;93.10;;;;;;5031108;28;20655;-50
2020/12/15 10:02:08;;;;;;;17.63;15.93;;;10.90;93.20;;;;;;5033108;28;20673;-52
2020/12/15 10:04:35;;;;;;;16.80;14.93;;;10.90;93.30;;;;;;5031533;28;20988;-52
2020/12/15 10:07:02;;;;;;;17.37;15.00;;;11.00;93.40;;;;;;5032945;28;21134;-49
2020/12/15 10:09:29;;;;;;;18.83;16.90;;;11.00;93.30;;;;;;5032923;28;21205;-48
2020/12/15 10:11:57;;;;;;;18.73;16.83;;;11.10;93.70;;;;;;5032902;28;21266;-51
2020/12/15 10:14:23;;;;;;;16.83;15.13;;;11.10;93.60;;;;;;5033000;28;20626;-49
2020/12/15 10:16:50;;;;;;;15.87;14.23;;;11.20;93.70;;;;;;5032171;28;20671;-51
2020/12/15 10:19:17;;;;;;;16.33;14.80;;;11.30;93.60;;;;;;5032247;28;20670;-53
2020/12/15 10:21:44;;;;;;;17.70;15.80;;;11.30;93.40;;;;;;5032791;28;20687;-54
2020/12/15 10:24:11;;;;;;;15.37;13.77;;;11.40;93.30;;;;;;5031925;28;20634;-54
2020/12/15 10:26:37;;;;;;;16.27;14.60;;;11.50;93.50;;;;;;5032317;28;21162;-52
2020/12/15 10:29:05;;;;;;;15.53;14.00;;;11.60;93.40;;;;;;5032060;28;20662;-52
2020/12/15 10:31:32;;;;;;;16.10;14.40;;;11.60;92.90;;;;;;5032647;28;20655;-50
2020/12/15 10:33:59;;;;;;;15.87;14.40;;;11.80;92.90;;;;;;5033408;28;20637;-49
2020/12/15 10:36:26;;;;;;;18.70;13.70;;;11.80;92.90;;;;;;5032884;28;20650;-49
2020/12/15 10:38:53;;;;;;;16.37;12.80;;;11.90;93.00;;;;;;5032929;28;20622;-52
2020/12/15 10:41:25;;;;;;;13.70;12.37;;;12.00;92.70;;;;;;5031839;28;20698;-53
2020/12/15 10:43:52;;;;;;;16.10;14.33;;;12.10;92.50;;;;;;5032466;28;21048;-53
2020/12/15 10:46:24;;;;;;;14.50;13.00;;;12.10;92.50;;;;;;5031633;28;20639;-52
2020/12/15 10:48:50;;;;;;;13.37;11.97;;;12.20;92.10;;;;;;5032252;28;21202;-51
2020/12/15 10:51:17;;;;;;;12.80;11.30;;;12.20;91.90;;;;;;5031400;28;20651;-52
2020/12/15 10:53:44;;;;;;;13.53;10.93;;;12.30;91.80;;;;;;5032842;28;21259;-53
2020/12/15 10:56:13;;;;;;;14.33;12.90;;;12.20;91.70;;;;;;5032852;28;21169;-51
2020/12/15 10:58:40;;;;;;;14.63;13.10;;;12.20;91.70;;;;;;5032377;28;20654;-52
2020/12/15 11:01:07;;;;;;;13.60;12.40;;;12.20;91.70;;;;;;5032988;28;20768;-53
2020/12/15 11:03:35;;;;;;;13.83;12.53;;;12.10;91.80;;;;;;5032616;28;20614;-53
2020/12/15 11:06:03;;;;;;;12.83;10.30;;;12.10;92.00;;;;;;5032310;28;20658;-54
2020/12/15 11:08:30;;;;;;;13.27;11.70;;;12.10;92.10;;;;;;5031491;28;20627;-53
2020/12/15 11:10:57;;;;;;;14.57;13.17;;;12.00;92.00;;;;;;5031783;28;20752;-54
2020/12/15 11:13:24;;;;;;;15.83;12.80;;;12.00;92.20;;;;;;5031537;28;20726;-52
2020/12/15 11:15:50;;;;;;;12.50;11.17;;;12.00;92.60;;;;;;5031579;28;20694;-49
2020/12/15 11:18:18;;;;;;;12.53;11.23;;;12.00;92.80;;;;;;5031143;28;20667;-51
2020/12/15 11:20:46;;;;;;;13.43;12.23;;;12.00;92.70;;;;;;5031113;28;20695;-49
2020/12/15 11:23:13;;;;;;;15.57;13.50;;;12.00;92.90;;;;;;5031148;28;20651;-53
2020/12/15 11:25:40;;;;;;;16.23;12.37;;;12.00;92.70;;;;;;5031175;28;20635;-51
2020/12/15 11:28:06;;;;;;;14.57;13.20;;;12.00;92.80;;;;;;5030987;28;20663;-49
2020/12/15 11:30:33;;;;;;;14.40;12.87;;;12.00;92.80;;;;;;5030847;28;20715;-49
2020/12/15 11:33:00;;;;;;;13.60;12.27;;;12.00;92.80;;;;;;5030573;28;20658;-50
2020/12/15 11:35:27;;;;;;;12.93;11.63;;;12.00;92.90;;;;;;5031619;28;20667;-50
2020/12/15 11:37:55;;;;;;;13.80;12.40;;;12.00;92.70;;;;;;5030992;28;21166;-50
2020/12/15 11:40:22;;;;;;;14.07;11.90;;;12.00;92.70;;;;;;5031068;28;20691;-50
2020/12/15 11:42:50;;;;;;;12.47;11.03;;;12.00;93.00;;;;;;5030570;28;20692;-50
2020/12/15 11:45:17;;;;;;;12.97;11.60;;;12.00;93.10;;;;;;5021017;28;20682;-52
2020/12/15 11:47:43;;;;;;;11.30;10.10;;;12.00;93.00;;;;;;5010725;28;20666;-49
2020/12/15 11:50:10;;;;;;;13.53;12.00;;;12.00;93.10;;;;;;5010286;28;20706;-52
2020/12/15 11:52:37;;;;;;;12.73;10.43;;;12.00;93.30;;;;;;5014094;28;20662;-52
2020/12/15 11:55:05;;;;;;;13.47;11.60;;;12.00;93.40;;;;;;5030544;28;20704;-52
2020/12/15 11:57:32;;;;;;;12.33;10.80;;;12.00;93.30;;;;;;5030864;28;20765;-54
2020/12/15 11:59:58;;;;;;;10.97;9.90;;;12.00;93.30;;;;;;5030704;28;20705;-52
2020/12/15 12:02:25;;;;;;;10.73;9.73;;;12.00;93.30;;;;;;5030688;28;20699;-48
2020/12/15 12:04:52;;;;;;;11.53;10.37;;;12.10;93.30;;;;;;5030227;28;20663;-48
2020/12/15 12:07:19;;;;;;;11.63;10.13;;;12.10;93.20;;;;;;5030549;28;20658;-50
2020/12/15 12:09:46;;;;;;;11.37;10.37;;;12.10;93.00;;;;;;5028611;28;20654;-50
2020/12/15 12:12:13;;;;;;;12.40;10.97;;;12.10;93.00;;;;;;5030798;28;20996;-50
2020/12/15 12:14:40;;;;;;;12.83;11.00;;;12.10;93.20;;;;;;5030134;28;20996;-53
2020/12/15 12:17:07;;;;;;;10.90;9.80;;;12.10;93.10;;;;;;5030023;28;20638;-52
2020/12/15 12:19:34;;;;;;;10.87;9.50;;;12.00;93.00;;;;;;5029563;28;20654;-52
2020/12/15 12:22:00;;;;;;;10.60;9.47;;;12.00;92.90;;;;;;5030635;28;20687;-52
2020/12/15 12:24:27;;;;;;;11.90;10.70;;;12.10;92.90;;;;;;5030518;28;20663;-52
2020/12/15 12:26:56;;;;;;;12.83;11.40;;;12.10;93.00;;;;;;5029248;28;20645;-52
2020/12/15 12:29:24;;;;;;;11.47;10.27;;;12.10;93.20;;;;;;5030408;28;20622;-51
2020/12/15 12:31:50;;;;;;;10.40;9.40;;;12.10;92.90;;;;;;5031245;28;20960;-52
2020/12/15 12:34:17;;;;;;;11.23;9.60;;;12.10;93.00;;;;;;5029995;28;20671;-51
2020/12/15 12:36:44;;;;;;;12.33;9.70;;;12.10;93.00;;;;;;5030516;28;21183;-52
2020/12/15 12:39:11;;;;;;;12.40;11.20;;;12.10;93.20;;;;;;5031001;28;20674;-49
2020/12/15 12:41:38;;;;;;;11.73;10.10;;;12.10;93.20;;;;;;5030469;28;20701;-49